Time;durP1;ratioP1;P1;durP2;ratioP2;P2;SDS_P1;SDS_P2;PMS_P1;PMS_P2;Temp;Humidity;BMP_temperature;BMP_pressure;BME280_temperature;BME280_humidity;BME280_pressure;Samples;Min_cycle;Max_cycle;Signal;HPM_P1;HPM_P2
2022/10/24 00:00:19;;;;;;;2.93;1.33;;;17.60;99.90;;;;;;4966823;28;20120;-81
2022/10/24 00:02:45;;;;;;;4.07;1.10;;;17.60;99.90;;;;;;4964665;28;20152;-82
2022/10/24 00:05:14;;;;;;;2.43;1.10;;;17.60;99.90;;;;;;4980700;28;20393;-82
2022/10/24 00:07:41;;;;;;;1.88;0.98;;;17.70;99.90;;;;;;4992665;28;20091;-82
2022/10/24 00:10:07;;;;;;;1.88;1.35;;;17.70;99.90;;;;;;4998990;28;20076;-81
2022/10/24 00:12:33;;;;;;;2.22;1.00;;;17.70;99.90;;;;;;4974433;28;20040;-82
2022/10/24 00:14:59;;;;;;;4.77;1.40;;;17.70;99.90;;;;;;4984951;28;20277;-82
2022/10/24 00:17:25;;;;;;;4.63;1.20;;;17.70;99.90;;;;;;4962168;28;20040;-81
2022/10/24 00:19:53;;;;;;;4.03;1.30;;;17.70;99.90;;;;;;4977468;28;20315;-82
2022/10/24 00:22:19;;;;;;;3.13;1.10;;;17.70;99.90;;;;;;4967097;28;20022;-81
2022/10/24 00:24:44;;;;;;;2.60;1.10;;;17.70;99.90;;;;;;4988290;28;20691;-81
2022/10/24 00:27:10;;;;;;;2.77;1.50;;;17.80;99.90;;;;;;4990756;28;20038;-82
2022/10/24 00:29:36;;;;;;;3.45;1.35;;;17.80;99.90;;;;;;4963613;28;20026;-82
2022/10/24 00:32:01;;;;;;;2.97;1.30;;;17.90;99.90;;;;;;4988880;28;20125;-82
2022/10/24 00:34:27;;;;;;;4.10;1.38;;;17.90;99.90;;;;;;4960795;28;20033;-82
2022/10/24 00:36:52;;;;;;;3.80;1.37;;;18.00;99.90;;;;;;4983087;28;20480;-83
2022/10/24 00:39:18;;;;;;;1.60;1.00;;;18.10;99.90;;;;;;5005058;28;20361;-82
2022/10/24 00:41:44;;;;;;;2.85;1.20;;;18.10;99.90;;;;;;4980450;28;20202;-82
2022/10/24 00:44:22;;;;;;;3.87;1.30;;;18.10;99.90;;;;;;4990932;28;20018;-82
2022/10/24 00:47:11;;;;;;;2.72;1.27;;;18.20;99.40;;;;;;4974600;28;20698;-82
2022/10/24 00:50:01;;;;;;;3.63;1.17;;;18.30;99.70;;;;;;4950294;28;20030;-82
2022/10/24 00:52:32;;;;;;;2.67;1.30;;;18.30;99.50;;;;;;4986613;28;20042;-82
2022/10/24 00:55:00;;;;;;;1.95;1.00;;;18.40;99.80;;;;;;4991560;28;20033;-82
2022/10/24 00:57:46;;;;;;;1.70;1.00;;;18.50;99.60;;;;;;4990639;28;20034;-82
2022/10/24 01:00:19;;;;;;;4.05;1.30;;;18.50;98.70;;;;;;4977557;28;20026;-82
2022/10/24 01:02:46;;;;;;;3.13;1.20;;;18.50;98.70;;;;;;4959412;28;20034;-82
2022/10/24 01:05:12;;;;;;;3.47;1.20;;;18.60;99.00;;;;;;4955761;28;20120;-82
2022/10/24 01:08:07;;;;;;;3.08;1.00;;;18.60;98.80;;;;;;4983883;28;20030;-82
2022/10/24 01:10:45;;;;;;;1.90;0.90;;;18.60;97.80;;;;;;4972918;28;20024;-82
2022/10/24 01:13:39;;;;;;;1.85;0.98;;;18.60;98.40;;;;;;4993926;28;20537;-82
2022/10/24 01:16:26;;;;;;;1.92;1.10;;;18.70;98.50;;;;;;4984667;28;20131;-82
2022/10/24 01:19:05;;;;;;;1.52;1.02;;;18.60;97.50;;;;;;4969820;28;20462;-82
2022/10/24 01:21:35;;;;;;;2.30;0.98;;;18.70;98.10;;;;;;4957311;28;20068;-83
2022/10/24 01:24:29;;;;;;;1.90;1.00;;;18.70;97.80;;;;;;4991875;28;20029;-82
2022/10/24 01:27:13;;;;;;;2.88;0.90;;;18.70;97.40;;;;;;4986930;28;20211;-82
2022/10/24 01:29:51;;;;;;;3.22;1.05;;;18.70;97.70;;;;;;4993046;28;20042;-82
2022/10/24 01:32:38;;;;;;;1.85;0.90;;;18.70;98.00;;;;;;4989770;28;20479;-82
2022/10/24 01:35:26;;;;;;;2.17;1.00;;;18.70;97.10;;;;;;4985922;28;20397;-81
2022/10/24 01:38:01;;;;;;;2.97;1.03;;;18.70;96.20;;;;;;4950158;28;20267;-83
2022/10/24 01:40:53;;;;;;;3.75;0.93;;;18.80;97.20;;;;;;4995182;28;20021;-82
2022/10/24 01:43:25;;;;;;;2.55;1.00;;;18.70;94.90;;;;;;4969692;28;20470;-82
2022/10/24 01:45:57;;;;;;;3.22;0.88;;;18.80;97.10;;;;;;4961294;28;20184;-82
2022/10/24 01:48:25;;;;;;;2.20;0.90;;;18.80;97.20;;;;;;4982783;28;20041;-81
2022/10/24 01:50:53;;;;;;;3.03;0.93;;;18.80;97.20;;;;;;4960547;28;20033;-82
2022/10/24 01:53:21;;;;;;;4.32;1.08;;;18.80;96.90;;;;;;4976732;28;20398;-82
2022/10/24 01:55:48;;;;;;;2.15;0.90;;;18.80;96.90;;;;;;4985592;28;20296;-81
2022/10/24 01:58:13;;;;;;;1.35;0.80;;;18.80;96.90;;;;;;4984323;28;20025;-82
2022/10/24 02:00:42;;;;;;;2.30;1.00;;;18.80;96.40;;;;;;4999543;28;20416;-82
2022/10/24 02:03:25;;;;;;;2.53;0.90;;;18.80;96.20;;;;;;4984799;28;20023;-82
2022/10/24 02:05:57;;;;;;;2.15;0.90;;;18.90;96.00;;;;;;4983007;28;20502;-81
2022/10/24 02:08:29;;;;;;;2.15;0.80;;;18.90;96.30;;;;;;4974335;28;20034;-79
2022/10/24 02:10:58;;;;;;;2.00;0.80;;;18.90;96.20;;;;;;4987897;28;20033;-83
2022/10/24 02:13:39;;;;;;;2.38;1.10;;;18.90;96.00;;;;;;4979573;28;20108;-82
2022/10/24 02:16:05;;;;;;;1.67;1.00;;;18.90;96.50;;;;;;4993885;28;20069;-82
2022/10/24 02:18:33;;;;;;;1.48;0.80;;;18.90;96.30;;;;;;4968562;28;20093;-82
2022/10/24 02:21:05;;;;;;;2.05;0.85;;;18.90;96.30;;;;;;4985445;28;20026;-82
2022/10/24 02:24:00;;;;;;;2.87;0.90;;;18.90;95.90;;;;;;4955080;28;20207;-82
2022/10/24 02:26:46;;;;;;;3.33;0.98;;;18.90;95.40;;;;;;4977190;28;20403;-81
2022/10/24 02:29:18;;;;;;;1.80;0.98;;;18.90;95.20;;;;;;4969310;28;20041;-82
2022/10/24 02:31:52;;;;;;;2.88;0.90;;;18.90;95.90;;;;;;5012768;28;20482;-82
2022/10/24 02:34:20;;;;;;;2.72;1.00;;;18.90;96.10;;;;;;4987124;28;20036;-81
2022/10/24 02:36:48;;;;;;;2.40;1.00;;;18.90;95.90;;;;;;4976417;28;20446;-81
2022/10/24 02:39:15;;;;;;;2.65;0.70;;;18.90;96.50;;;;;;4955858;28;20021;-81
2022/10/24 02:41:43;;;;;;;3.30;0.88;;;18.90;96.80;;;;;;4991650;28;20018;-80
2022/10/24 02:44:11;;;;;;;3.20;0.95;;;18.90;96.90;;;;;;4990941;28;20402;-81
2022/10/24 02:46:38;;;;;;;2.40;0.80;;;18.90;97.00;;;;;;4996036;28;20637;-82
2022/10/24 02:49:04;;;;;;;4.10;1.00;;;18.90;96.90;;;;;;4982051;28;20021;-82
2022/10/24 02:51:33;;;;;;;2.97;0.90;;;18.90;96.90;;;;;;4985461;28;20681;-82
2022/10/24 02:53:59;;;;;;;1.00;0.70;;;18.90;97.10;;;;;;4959220;28;20433;-82
2022/10/24 02:56:26;;;;;;;2.00;0.95;;;18.90;97.40;;;;;;4983105;28;20069;-81
2022/10/24 02:58:52;;;;;;;1.95;0.70;;;18.90;98.00;;;;;;4991528;28;20516;-82
2022/10/24 03:01:18;;;;;;;2.50;0.90;;;19.00;98.30;;;;;;4975704;28;20061;-81
2022/10/24 03:03:43;;;;;;;3.20;1.00;;;19.00;98.60;;;;;;4984000;28;20026;-81
2022/10/24 03:06:09;;;;;;;3.30;1.13;;;19.00;98.60;;;;;;4990412;28;20118;-81
2022/10/24 03:08:34;;;;;;;2.57;1.00;;;19.00;98.70;;;;;;4972264;28;20041;-81
2022/10/24 03:11:00;;;;;;;2.53;0.90;;;19.10;98.60;;;;;;4979210;28;20152;-82
2022/10/24 03:13:26;;;;;;;1.67;0.83;;;19.10;98.60;;;;;;4977563;28;20029;-81
2022/10/24 03:15:51;;;;;;;3.00;0.90;;;19.10;98.60;;;;;;4995600;28;20327;-82
2022/10/24 03:18:17;;;;;;;5.13;0.80;;;19.10;98.70;;;;;;4974290;28;20042;-82
2022/10/24 03:20:43;;;;;;;2.13;0.90;;;19.20;98.80;;;;;;4977781;28;20018;-81
2022/10/24 03:23:09;;;;;;;2.13;1.10;;;19.10;98.70;;;;;;5001347;28;20372;-81
2022/10/24 03:25:34;;;;;;;3.72;1.08;;;19.10;98.70;;;;;;4951270;28;20092;-82
2022/10/24 03:28:00;;;;;;;2.63;0.80;;;19.20;98.70;;;;;;4991342;28;20342;-81
2022/10/24 03:30:26;;;;;;;2.72;0.80;;;19.20;98.70;;;;;;4964592;28;20053;-81
2022/10/24 03:32:51;;;;;;;2.30;0.77;;;19.20;98.60;;;;;;4994507;28;20030;-81
2022/10/24 03:35:17;;;;;;;2.73;0.90;;;19.20;98.30;;;;;;4974305;28;20529;-81
2022/10/24 03:37:43;;;;;;;3.22;1.13;;;19.20;98.30;;;;;;4983273;28;21415;-81
2022/10/24 03:40:10;;;;;;;4.85;1.15;;;19.20;97.80;;;;;;4975928;28;20037;-81
2022/10/24 03:42:36;;;;;;;2.87;0.93;;;19.20;97.10;;;;;;4961030;28;20057;-82
2022/10/24 03:45:02;;;;;;;3.42;0.80;;;19.20;97.10;;;;;;4985097;28;20501;-82
2022/10/24 03:47:27;;;;;;;4.28;0.95;;;19.10;97.10;;;;;;4988286;28;20077;-82
2022/10/24 03:49:53;;;;;;;2.30;0.87;;;19.20;97.00;;;;;;4966564;28;20425;-82
2022/10/24 03:52:18;;;;;;;2.00;0.65;;;19.20;97.20;;;;;;4969469;28;20171;-81
2022/10/24 03:54:44;;;;;;;4.30;1.00;;;19.10;97.40;;;;;;4977104;28;20501;-81
2022/10/24 03:57:10;;;;;;;3.05;0.70;;;19.10;97.20;;;;;;4977885;28;20030;-83
2022/10/24 03:59:36;;;;;;;2.23;0.70;;;19.20;97.30;;;;;;4979038;28;20014;-81
2022/10/24 04:02:02;;;;;;;2.92;0.80;;;19.20;97.30;;;;;;4969736;28;20107;-82
2022/10/24 04:04:28;;;;;;;3.00;0.82;;;19.10;97.20;;;;;;4991638;28;20471;-81
2022/10/24 04:06:54;;;;;;;3.43;1.10;;;19.10;97.20;;;;;;4989679;28;20029;-82
2022/10/24 04:09:20;;;;;;;2.70;0.80;;;19.10;97.10;;;;;;4981158;28;20105;-81
2022/10/24 04:11:46;;;;;;;2.17;0.77;;;19.20;97.20;;;;;;4970594;28;20616;-81
2022/10/24 04:14:12;;;;;;;3.13;0.90;;;19.20;97.10;;;;;;4985704;28;21859;-81
2022/10/24 04:16:38;;;;;;;4.13;0.93;;;19.10;97.30;;;;;;4988377;28;20026;-81
2022/10/24 04:19:04;;;;;;;3.47;0.80;;;19.20;97.10;;;;;;4990196;28;20124;-82
2022/10/24 04:21:29;;;;;;;2.37;0.87;;;19.20;97.20;;;;;;4970678;28;20037;-81
2022/10/24 04:23:55;;;;;;;3.22;0.82;;;19.20;97.10;;;;;;4983602;28;20160;-81
2022/10/24 04:26:21;;;;;;;2.03;0.90;;;19.20;97.20;;;;;;4969762;28;20107;-81
2022/10/24 04:28:47;;;;;;;3.23;0.80;;;19.20;97.30;;;;;;4973967;28;20489;-81
2022/10/24 04:31:13;;;;;;;5.30;1.00;;;19.20;97.30;;;;;;4987794;28;20159;-82
2022/10/24 04:33:38;;;;;;;1.97;0.70;;;19.20;97.10;;;;;;4972833;28;20533;-81
2022/10/24 04:36:04;;;;;;;5.22;0.90;;;19.10;97.00;;;;;;4975045;28;20026;-82
2022/10/24 04:38:30;;;;;;;3.33;0.88;;;19.10;97.00;;;;;;4989705;28;20707;-82
2022/10/24 04:40:56;;;;;;;3.10;0.80;;;19.10;96.80;;;;;;4968229;28;20023;-81
2022/10/24 04:43:22;;;;;;;4.57;0.97;;;19.10;96.90;;;;;;4970391;28;20034;-81
2022/10/24 04:45:48;;;;;;;3.40;0.90;;;19.10;96.90;;;;;;4991629;28;20285;-81
2022/10/24 04:48:14;;;;;;;3.45;1.00;;;19.10;96.70;;;;;;4988663;28;20038;-81
2022/10/24 04:50:41;;;;;;;4.35;1.15;;;19.10;96.80;;;;;;4968626;28;21171;-81
2022/10/24 04:53:07;;;;;;;3.50;1.10;;;19.10;96.50;;;;;;4987376;28;20030;-80
2022/10/24 04:55:34;;;;;;;4.00;1.00;;;19.10;96.60;;;;;;4981226;28;20029;-81
2022/10/24 04:58:00;;;;;;;5.55;1.00;;;19.10;96.80;;;;;;4956586;28;20085;-82
2022/10/24 05:00:25;;;;;;;5.15;1.00;;;19.20;96.40;;;;;;4976471;28;20191;-81
2022/10/24 05:02:51;;;;;;;3.57;0.93;;;19.10;96.40;;;;;;4972124;28;20434;-81
2022/10/24 05:05:17;;;;;;;3.53;0.75;;;19.20;96.20;;;;;;4974003;28;20619;-81
2022/10/24 05:07:44;;;;;;;4.80;1.00;;;19.20;96.20;;;;;;4974077;28;20160;-81
2022/10/24 05:10:11;;;;;;;5.07;1.15;;;19.20;95.90;;;;;;4962265;28;20037;-80
2022/10/24 05:12:37;;;;;;;5.30;0.90;;;19.20;96.00;;;;;;4957901;28;20794;-81
2022/10/24 05:15:03;;;;;;;4.43;1.00;;;19.20;96.10;;;;;;4992255;28;20117;-81
2022/10/24 05:17:29;;;;;;;3.70;0.80;;;19.20;95.70;;;;;;4980457;28;20772;-81
2022/10/24 05:19:54;;;;;;;3.00;0.80;;;19.20;95.70;;;;;;4989695;28;20825;-82
2022/10/24 05:22:20;;;;;;;4.60;0.90;;;19.20;95.80;;;;;;4979726;28;20104;-81
2022/10/24 05:24:45;;;;;;;4.18;0.77;;;19.20;95.90;;;;;;4976752;28;20027;-81
2022/10/24 05:27:11;;;;;;;4.13;0.70;;;19.20;95.90;;;;;;4961506;28;20028;-83
2022/10/24 05:29:37;;;;;;;4.13;0.93;;;19.20;96.00;;;;;;4974015;28;20130;-81
2022/10/24 05:32:03;;;;;;;3.13;0.90;;;19.20;95.90;;;;;;4987013;28;20280;-81
2022/10/24 05:34:28;;;;;;;4.15;1.13;;;19.20;95.90;;;;;;4987848;28;20510;-81
2022/10/24 05:36:54;;;;;;;5.10;1.00;;;19.20;95.30;;;;;;4990096;28;20144;-83
2022/10/24 05:39:20;;;;;;;5.95;1.00;;;19.20;95.50;;;;;;4963870;28;20066;-84
2022/10/24 05:41:45;;;;;;;4.63;1.10;;;19.20;95.60;;;;;;4991298;28;20135;-83
2022/10/24 05:44:12;;;;;;;3.97;0.85;;;19.20;95.50;;;;;;4955448;28;20583;-83
2022/10/24 05:46:38;;;;;;;2.45;0.80;;;19.20;95.60;;;;;;4970501;28;20071;-83
2022/10/24 05:49:04;;;;;;;5.67;1.10;;;19.20;95.70;;;;;;4991301;28;20042;-84
2022/10/24 05:51:30;;;;;;;4.18;1.10;;;19.20;95.60;;;;;;4990043;28;20030;-82
2022/10/24 05:53:57;;;;;;;5.78;1.00;;;19.20;95.60;;;;;;4980427;28;20302;-83
2022/10/24 05:56:23;;;;;;;5.75;0.90;;;19.20;95.30;;;;;;4966588;28;20065;-83
2022/10/24 05:58:49;;;;;;;5.63;1.00;;;19.20;95.10;;;;;;4983370;28;20106;-83
2022/10/24 06:01:14;;;;;;;4.70;0.82;;;19.10;94.80;;;;;;4966139;28;20084;-83
2022/10/24 06:03:40;;;;;;;3.07;0.70;;;19.00;94.60;;;;;;4984563;28;20382;-82
2022/10/24 06:06:07;;;;;;;4.57;0.82;;;18.80;94.60;;;;;;4987074;28;20057;-83
2022/10/24 06:08:34;;;;;;;3.70;0.90;;;18.70;94.70;;;;;;4976728;28;20252;-83
2022/10/24 06:11:00;;;;;;;2.55;0.63;;;18.50;95.00;;;;;;4972370;28;20356;-82
2022/10/24 06:13:26;;;;;;;3.40;0.90;;;18.30;95.30;;;;;;4973441;28;20050;-83
2022/10/24 06:15:51;;;;;;;4.63;0.90;;;18.10;95.50;;;;;;4967173;28;20045;-84
2022/10/24 06:18:17;;;;;;;3.33;0.80;;;18.00;95.70;;;;;;4978076;28;22321;-84
2022/10/24 06:20:42;;;;;;;6.43;1.00;;;17.90;95.90;;;;;;4990052;28;20022;-83
2022/10/24 06:23:08;;;;;;;5.95;1.00;;;17.80;95.90;;;;;;4986416;28;20049;-83
2022/10/24 06:25:34;;;;;;;4.70;0.80;;;17.70;96.10;;;;;;4976073;28;20046;-83
2022/10/24 06:27:59;;;;;;;5.47;0.88;;;17.60;96.30;;;;;;4953064;28;20030;-83
2022/10/24 06:30:25;;;;;;;3.00;0.70;;;17.60;96.40;;;;;;4953596;28;20056;-83
2022/10/24 06:32:51;;;;;;;4.43;0.93;;;17.60;96.40;;;;;;4968284;28;20111;-83
2022/10/24 06:35:18;;;;;;;4.97;1.00;;;17.60;96.60;;;;;;4977475;28;20115;-83
2022/10/24 06:37:43;;;;;;;6.25;1.00;;;17.60;96.80;;;;;;4981532;28;20033;-83
2022/10/24 06:40:10;;;;;;;5.20;1.40;;;17.60;96.70;;;;;;4989045;28;20030;-83
2022/10/24 06:42:36;;;;;;;7.23;1.20;;;17.60;96.90;;;;;;4959982;28;20362;-83
2022/10/24 06:45:02;;;;;;;5.25;1.10;;;17.60;96.70;;;;;;4983792;28;20030;-83
2022/10/24 06:47:28;;;;;;;4.63;1.00;;;17.70;96.60;;;;;;4935534;28;20426;-83
2022/10/24 06:49:53;;;;;;;5.20;1.00;;;17.70;96.70;;;;;;4994007;28;20083;-83
2022/10/24 06:52:19;;;;;;;3.22;0.60;;;17.70;96.50;;;;;;4954400;28;20076;-83
2022/10/24 06:54:45;;;;;;;3.67;0.60;;;17.70;96.40;;;;;;5000373;28;20116;-83
2022/10/24 06:57:10;;;;;;;3.03;0.80;;;17.60;96.20;;;;;;4956582;28;20557;-83
2022/10/24 06:59:36;;;;;;;1.80;0.47;;;17.60;96.20;;;;;;4979692;28;20052;-84
2022/10/24 07:02:02;;;;;;;1.93;0.60;;;17.50;96.50;;;;;;4962797;28;24519;-82
2022/10/24 07:04:27;;;;;;;1.95;0.65;;;17.40;96.50;;;;;;4978287;28;20030;-84
2022/10/24 07:06:53;;;;;;;4.03;0.70;;;17.30;96.60;;;;;;4966809;28;20604;-83
2022/10/24 07:09:19;;;;;;;3.53;0.60;;;17.20;96.70;;;;;;4992132;28;20435;-83
2022/10/24 07:11:44;;;;;;;2.70;0.60;;;17.20;96.90;;;;;;4960989;28;20030;-83
2022/10/24 07:14:11;;;;;;;1.60;0.45;;;17.10;97.10;;;;;;4978816;28;20453;-82
2022/10/24 07:16:38;;;;;;;3.10;0.65;;;17.00;97.20;;;;;;4987206;28;20034;-82
2022/10/24 07:19:04;;;;;;;5.35;0.77;;;17.10;97.40;;;;;;4949558;28;22497;-84
2022/10/24 07:21:32;;;;;;;4.43;0.60;;;17.00;97.60;;;;;;4978842;28;20361;-83
2022/10/24 07:23:58;;;;;;;3.22;0.70;;;17.00;97.90;;;;;;4973889;28;22736;-82
2022/10/24 07:26:25;;;;;;;3.55;0.70;;;17.10;98.20;;;;;;4983294;28;20045;-83
2022/10/24 07:28:53;;;;;;;3.30;0.60;;;17.10;98.30;;;;;;4974375;28;20072;-83
2022/10/24 07:31:24;;;;;;;3.08;0.68;;;17.20;98.80;;;;;;4997674;28;20077;-83
2022/10/24 07:33:51;;;;;;;3.57;0.90;;;17.30;99.20;;;;;;4962735;28;20109;-83
2022/10/24 07:36:19;;;;;;;3.35;0.80;;;17.40;99.90;;;;;;4989091;28;20072;-83
2022/10/24 07:38:46;;;;;;;1.80;0.82;;;17.60;99.90;;;;;;4989638;28;20025;-84
2022/10/24 07:41:11;;;;;;;4.53;0.65;;;17.70;99.70;;;;;;4985985;28;20035;-83
2022/10/24 07:43:37;;;;;;;3.37;0.80;;;17.80;99.40;;;;;;4980663;28;20037;-84
2022/10/24 07:46:16;;;;;;;3.47;0.80;;;17.90;99.10;;;;;;4984151;28;20463;-83
2022/10/24 07:48:42;;;;;;;4.05;0.80;;;18.00;98.40;;;;;;4965531;28;20026;-83
2022/10/24 07:51:10;;;;;;;5.00;0.80;;;18.10;99.20;;;;;;4976630;28;20041;-82
2022/10/24 07:53:36;;;;;;;3.08;0.60;;;18.10;99.30;;;;;;4980295;28;20482;-83
2022/10/24 07:56:07;;;;;;;4.47;0.90;;;18.20;98.90;;;;;;4965534;28;20116;-82
2022/10/24 07:58:33;;;;;;;3.65;0.90;;;18.20;98.80;;;;;;4985612;28;20109;-83
2022/10/24 08:01:17;;;;;;;4.37;1.37;;;18.30;98.60;;;;;;4969763;28;20029;-84
2022/10/24 08:03:43;;;;;;;5.00;0.98;;;18.30;97.80;;;;;;4974678;28;20022;-84
2022/10/24 08:06:12;;;;;;;5.72;0.95;;;18.30;98.70;;;;;;4989506;28;20466;-83
2022/10/24 08:08:38;;;;;;;4.78;1.13;;;18.40;98.70;;;;;;4998485;28;20026;-83
2022/10/24 08:11:26;;;;;;;4.63;1.00;;;18.50;99.10;;;;;;4991026;28;20319;-83
2022/10/24 08:13:53;;;;;;;2.57;0.70;;;18.50;98.80;;;;;;4979254;28;20026;-82
2022/10/24 08:16:21;;;;;;;3.40;0.90;;;18.60;99.00;;;;;;4975502;28;20487;-83
2022/10/24 08:18:47;;;;;;;3.85;1.00;;;18.70;98.90;;;;;;4949962;28;20092;-82
2022/10/24 08:21:14;;;;;;;3.38;0.80;;;18.80;99.10;;;;;;4981689;28;20490;-82
2022/10/24 08:23:45;;;;;;;4.00;0.80;;;18.90;99.00;;;;;;4963386;28;20076;-84
2022/10/24 08:26:13;;;;;;;4.30;1.00;;;18.90;98.60;;;;;;4987162;28;20103;-82
2022/10/24 08:28:40;;;;;;;4.50;1.08;;;19.00;98.40;;;;;;4985457;28;20022;-83
2022/10/24 08:31:12;;;;;;;4.70;0.90;;;19.00;98.50;;;;;;4973152;28;20737;-83
2022/10/24 08:33:38;;;;;;;4.47;0.98;;;19.10;98.40;;;;;;4967647;28;20109;-82
2022/10/24 08:36:10;;;;;;;6.00;0.90;;;19.20;98.60;;;;;;4964690;28;20041;-83
2022/10/24 08:38:36;;;;;;;4.53;0.98;;;19.20;98.30;;;;;;4988599;28;20040;-83
2022/10/24 08:41:02;;;;;;;6.05;0.98;;;19.30;98.40;;;;;;4989108;28;20223;-83
2022/10/24 08:43:27;;;;;;;2.93;0.73;;;19.30;98.60;;;;;;4968146;28;20494;-83
2022/10/24 08:45:59;;;;;;;5.03;1.15;;;19.40;98.70;;;;;;4982966;28;20260;-83
2022/10/24 08:48:30;;;;;;;5.23;0.97;;;19.50;98.70;;;;;;4987712;28;20343;-83
2022/10/24 08:51:12;;;;;;;5.30;1.10;;;19.50;98.10;;;;;;4956547;28;20311;-84
2022/10/24 08:53:38;;;;;;;4.50;1.00;;;19.60;97.70;;;;;;4982663;28;20474;-83
2022/10/24 08:56:05;;;;;;;5.68;1.05;;;19.70;98.70;;;;;;4969948;28;20576;-83
2022/10/24 08:58:39;;;;;;;5.13;1.00;;;19.90;99.40;;;;;;4969917;28;20045;-83
2022/10/24 09:01:13;;;;;;;4.17;1.00;;;20.10;99.50;;;;;;4981416;28;20126;-83
2022/10/24 09:03:50;;;;;;;4.70;1.10;;;20.40;99.90;;;;;;4978653;28;20146;-82
2022/10/24 09:06:24;;;;;;;5.35;0.98;;;20.70;99.80;;;;;;4958652;28;20029;-83
2022/10/24 09:08:53;;;;;;;4.60;1.08;;;20.90;99.90;;;;;;4958387;28;20564;-83
2022/10/24 09:11:44;;;;;;;2.75;1.00;;;21.20;99.90;;;;;;4974506;28;20517;-82
2022/10/24 09:14:16;;;;;;;5.07;1.17;;;21.60;98.30;;;;;;4961323;28;20514;-83
2022/10/24 09:16:44;;;;;;;2.67;0.82;;;22.10;99.90;;;;;;4968660;28;20030;-83
2022/10/24 09:19:15;;;;;;;4.05;1.05;;;22.40;99.90;;;;;;4978023;28;20021;-83
2022/10/24 09:21:42;;;;;;;3.83;1.05;;;22.80;99.30;;;;;;4959315;28;20501;-80
2022/10/24 09:24:26;;;;;;;3.92;1.05;;;23.20;99.90;;;;;;4986068;28;20668;-80
2022/10/24 09:26:52;;;;;;;5.50;1.27;;;23.50;96.20;;;;;;4975645;28;20038;-80
2022/10/24 09:29:18;;;;;;;4.20;1.00;;;23.70;98.20;;;;;;4984670;28;20022;-81
2022/10/24 09:31:43;;;;;;;3.13;0.80;;;23.90;97.90;;;;;;4987697;28;20116;-80
2022/10/24 09:34:10;;;;;;;3.60;1.20;;;24.10;96.70;;;;;;4995390;28;20076;-81
2022/10/24 09:36:38;;;;;;;3.75;1.05;;;24.30;97.10;;;;;;4962576;28;20065;-81
2022/10/24 09:39:26;;;;;;;3.97;1.20;;;24.50;96.60;;;;;;4963282;28;20025;-80
2022/10/24 09:41:52;;;;;;;3.15;1.10;;;24.70;91.90;;;;;;4972344;28;20218;-80
2022/10/24 09:44:39;;;;;;;5.18;1.42;;;24.90;95.90;;;;;;4989909;28;20018;-81
2022/10/24 09:47:18;;;;;;;3.17;1.05;;;24.90;93.00;;;;;;4991902;28;20255;-81
2022/10/24 09:49:45;;;;;;;5.78;1.35;;;24.90;93.30;;;;;;4984207;28;20021;-81
2022/10/24 09:52:26;;;;;;;5.23;1.33;;;24.80;93.00;;;;;;4966791;28;20080;-81
2022/10/24 09:55:18;;;;;;;4.65;1.10;;;24.80;92.80;;;;;;4959349;28;20537;-81
2022/10/24 09:57:43;;;;;;;3.83;1.00;;;25.00;91.10;;;;;;4997309;28;20029;-81
2022/10/24 10:00:23;;;;;;;2.53;1.00;;;25.00;94.00;;;;;;5000098;28;20034;-82
2022/10/24 10:03:00;;;;;;;4.53;0.95;;;25.00;91.40;;;;;;4989640;28;20647;-80
2022/10/24 10:05:44;;;;;;;3.28;0.90;;;24.90;89.50;;;;;;4979706;28;20052;-80
2022/10/24 10:08:32;;;;;;;4.05;0.90;;;24.80;92.50;;;;;;4964748;28;20022;-81
2022/10/24 10:11:25;;;;;;;3.35;1.10;;;24.90;90.90;;;;;;4979927;28;20096;-81
2022/10/24 10:13:54;;;;;;;4.53;1.20;;;24.90;90.60;;;;;;4975518;28;20727;-80
2022/10/24 10:16:32;;;;;;;3.97;1.00;;;24.90;91.30;;;;;;4977352;28;20065;-81
2022/10/24 10:19:14;;;;;;;5.20;1.20;;;24.70;88.40;;;;;;4979467;28;20341;-82
2022/10/24 10:22:01;;;;;;;4.18;1.27;;;24.50;86.40;;;;;;4964455;28;20018;-80
2022/10/24 10:24:41;;;;;;;3.75;1.02;;;24.30;88.30;;;;;;4988956;28;20023;-79
2022/10/24 10:27:38;;;;;;;4.00;1.23;;;24.20;88.00;;;;;;4992419;28;20494;-80
2022/10/24 10:30:06;;;;;;;4.40;1.00;;;24.00;85.70;;;;;;4990886;28;20204;-81
2022/10/24 10:32:46;;;;;;;4.30;1.40;;;24.00;91.70;;;;;;4985424;28;20124;-81
2022/10/24 10:35:26;;;;;;;4.30;1.00;;;24.20;91.30;;;;;;4990895;28;20030;-79
2022/10/24 10:38:05;;;;;;;3.38;1.10;;;24.50;91.60;;;;;;4966657;28;20155;-81
2022/10/24 10:40:53;;;;;;;3.97;0.80;;;24.60;90.70;;;;;;4975553;28;20015;-80
2022/10/24 10:43:26;;;;;;;5.93;1.45;;;24.70;90.70;;;;;;4962100;28;20430;-80
2022/10/24 10:46:17;;;;;;;4.55;0.93;;;24.70;90.30;;;;;;4981945;28;20678;-81
2022/10/24 10:49:19;;;;;;;4.30;1.15;;;24.60;83.40;;;;;;4979320;28;20402;-79
2022/10/24 10:52:04;;;;;;;5.95;1.40;;;24.60;88.10;;;;;;4999909;28;20285;-80
2022/10/24 10:54:39;;;;;;;3.73;0.90;;;24.70;90.00;;;;;;4979567;28;20045;-82
2022/10/24 10:57:13;;;;;;;4.72;1.35;;;24.90;90.30;;;;;;4970696;28;20030;-81
2022/10/24 10:59:57;;;;;;;2.53;0.95;;;24.90;87.20;;;;;;4974091;28;20066;-81
2022/10/24 11:02:39;;;;;;;3.38;1.10;;;24.90;87.90;;;;;;4974612;28;20034;-81
2022/10/24 11:05:25;;;;;;;3.67;1.08;;;25.00;90.40;;;;;;4990683;28;20081;-80
2022/10/24 11:08:11;;;;;;;3.23;0.80;;;25.00;86.00;;;;;;4987884;28;20143;-80
2022/10/24 11:10:52;;;;;;;3.35;1.00;;;25.00;83.60;;;;;;4974650;28;20035;-80
2022/10/24 11:13:25;;;;;;;2.70;0.88;;;24.80;85.00;;;;;;4962230;28;20022;-80
2022/10/24 11:15:57;;;;;;;3.92;1.00;;;24.60;84.80;;;;;;4967365;28;20335;-80
2022/10/24 11:18:29;;;;;;;5.18;1.27;;;24.30;85.30;;;;;;4991631;28;20074;-80
2022/10/24 11:21:01;;;;;;;3.40;0.73;;;24.00;84.90;;;;;;4986319;28;20746;-80
2022/10/24 11:23:39;;;;;;;6.07;0.98;;;23.80;85.00;;;;;;4993101;28;20030;-80
2022/10/24 11:26:14;;;;;;;3.65;0.80;;;23.40;84.30;;;;;;4980857;28;20655;-81
2022/10/24 11:29:01;;;;;;;3.90;0.90;;;23.20;84.50;;;;;;4967482;28;20137;-79
2022/10/24 11:31:33;;;;;;;5.28;0.90;;;22.90;86.50;;;;;;4970673;28;20330;-79
2022/10/24 11:34:13;;;;;;;3.13;0.80;;;22.70;86.90;;;;;;4970658;28;20072;-80
2022/10/24 11:36:51;;;;;;;3.75;1.10;;;22.60;88.10;;;;;;4989343;28;20248;-79
2022/10/24 11:39:28;;;;;;;3.00;0.80;;;22.40;88.20;;;;;;4983140;28;20029;-81
2022/10/24 11:42:01;;;;;;;5.30;0.90;;;22.30;84.90;;;;;;4967839;28;20030;-80
2022/10/24 11:44:48;;;;;;;4.10;0.80;;;22.30;89.10;;;;;;4966249;28;20256;-80
2022/10/24 11:47:23;;;;;;;3.60;0.70;;;22.20;90.00;;;;;;4977538;28;20367;-80
2022/10/24 11:50:09;;;;;;;4.15;0.75;;;22.20;88.40;;;;;;4993016;28;20042;-80
2022/10/24 11:52:40;;;;;;;4.40;0.77;;;22.20;89.50;;;;;;4982686;28;20215;-80
2022/10/24 11:55:22;;;;;;;2.92;0.70;;;22.20;90.30;;;;;;4991997;28;20030;-79
2022/10/24 11:57:59;;;;;;;3.00;0.70;;;22.20;88.60;;;;;;4980236;28;20251;-81
2022/10/24 12:00:44;;;;;;;2.57;0.80;;;22.30;89.20;;;;;;4974653;28;20269;-80
2022/10/24 12:03:19;;;;;;;2.78;0.70;;;22.30;87.60;;;;;;4960253;28;20369;-80
2022/10/24 12:06:07;;;;;;;1.98;0.73;;;22.40;90.70;;;;;;4984589;28;20495;-81
2022/10/24 12:08:52;;;;;;;2.13;0.70;;;22.70;93.30;;;;;;4980186;28;20295;-82
2022/10/24 12:11:53;;;;;;;3.42;1.20;;;23.10;92.20;;;;;;4979581;28;20537;-81
2022/10/24 12:14:47;;;;;;;3.07;0.73;;;23.50;92.50;;;;;;4949941;28;20099;-80
2022/10/24 12:17:39;;;;;;;1.63;0.68;;;23.80;91.10;;;;;;4948249;28;20104;-79
2022/10/24 12:20:10;;;;;;;2.85;0.88;;;23.80;90.90;;;;;;4986539;28;20038;-81
2022/10/24 12:22:40;;;;;;;2.97;0.60;;;23.80;90.50;;;;;;5003480;28;20026;-80
2022/10/24 12:25:19;;;;;;;5.28;0.90;;;23.70;90.10;;;;;;4973123;28;20053;-80
2022/10/24 12:27:53;;;;;;;2.30;0.87;;;23.60;89.90;;;;;;4994125;28;20018;-81
2022/10/24 12:30:22;;;;;;;1.52;0.55;;;23.50;90.10;;;;;;4983705;28;20037;-79
2022/10/24 12:32:54;;;;;;;1.90;0.68;;;23.50;91.30;;;;;;4978313;28;20490;-81
2022/10/24 12:35:26;;;;;;;1.98;0.70;;;23.50;90.90;;;;;;4976924;28;20072;-81
2022/10/24 12:37:52;;;;;;;2.25;0.60;;;23.50;90.20;;;;;;4978660;28;20116;-81
2022/10/24 12:40:57;;;;;;;1.80;0.67;;;23.50;91.40;;;;;;4980680;28;20033;-80
2022/10/24 12:43:43;;;;;;;1.38;0.80;;;23.60;88.10;;;;;;4973166;28;20072;-77
2022/10/24 12:46:14;;;;;;;2.28;0.88;;;23.60;85.30;;;;;;4982673;28;20502;-79
2022/10/24 12:49:02;;;;;;;2.30;0.63;;;23.60;90.20;;;;;;4971494;28;20108;-80
2022/10/24 12:51:33;;;;;;;1.20;0.80;;;23.60;90.80;;;;;;4964308;28;20898;-80
2022/10/24 12:54:01;;;;;;;1.37;0.80;;;23.50;91.30;;;;;;4993051;28;20027;-79
2022/10/24 12:56:28;;;;;;;1.20;0.55;;;23.50;90.90;;;;;;4963882;28;20244;-81
2022/10/24 12:59:27;;;;;;;2.10;0.73;;;23.50;90.70;;;;;;4976435;28;20367;-81
2022/10/24 13:02:12;;;;;;;3.17;0.60;;;23.40;86.00;;;;;;4976967;28;20030;-80
2022/10/24 13:05:15;;;;;;;3.15;0.93;;;23.30;89.70;;;;;;4971264;28;20090;-80
2022/10/24 13:08:05;;;;;;;1.83;0.60;;;23.30;89.20;;;;;;4966037;28;21449;-80
2022/10/24 13:10:51;;;;;;;1.48;0.70;;;23.20;89.60;;;;;;4978000;28;20413;-79